createdAt,value
2023-01-03T00:01:55.352Z,101378.59
2023-01-03T00:04:22.481Z,101375.25
2023-01-03T00:06:51.841Z,101373.69
2023-01-03T00:09:22.483Z,101373.25
2023-01-03T00:12:09.572Z,101372.66
2023-01-03T00:14:41.523Z,101371.59
2023-01-03T00:17:10.365Z,101373.19
2023-01-03T00:19:40.613Z,101372.13
2023-01-03T00:22:09.245Z,101380.66
2023-01-03T00:24:36.567Z,101379.06
2023-01-03T00:27:03.959Z,101380.03
2023-01-03T00:29:32.029Z,101391.09
2023-01-03T00:31:59.100Z,101382.31
2023-01-03T00:34:26.809Z,101385.72
2023-01-03T00:36:53.820Z,101386.13
2023-01-03T00:39:21.150Z,101386.84
2023-01-03T00:41:48.322Z,101379.94
2023-01-03T00:44:15.725Z,101387.66
2023-01-03T00:46:42.905Z,101397.81
2023-01-03T00:49:10.672Z,101390.81
2023-01-03T00:51:39.627Z,101395.47
2023-01-03T00:54:08.745Z,101401.75
2023-01-03T00:56:40.555Z,101403.28
2023-01-03T00:59:08.587Z,101408.25
2023-01-03T01:01:46.699Z,101401.62
2023-01-03T01:04:30.429Z,101401.97
2023-01-03T01:07:00.668Z,101393.91
2023-01-03T01:09:33.424Z,101385.25
2023-01-03T01:12:00.361Z,101384.38
2023-01-03T01:14:30.460Z,101392.56
2023-01-03T01:17:02.565Z,101399.41
2023-01-03T01:19:37.861Z,101397.91
2023-01-03T01:22:05.629Z,101403.19
2023-01-03T01:24:33.677Z,101399.87
2023-01-03T01:27:01.070Z,101406.19
2023-01-03T01:29:28.270Z,101402.81
2023-01-03T01:31:55.822Z,101399.72
2023-01-03T01:34:22.869Z,101395.41
2023-01-03T01:36:50.045Z,101409.19
2023-01-03T01:39:21.205Z,101411.12
2023-01-03T01:42:08.482Z,101407.69
2023-01-03T01:44:50.163Z,101408.12
2023-01-03T01:47:44.178Z,101398.50
2023-01-03T01:50:44.550Z,101402.41
2023-01-03T01:53:16.730Z,101412.41
2023-01-03T01:56:19.367Z,101412.94
2023-01-03T01:58:49.013Z,101414.75
2023-01-03T02:01:19.462Z,101422.25
2023-01-03T02:03:55.852Z,101420.28
2023-01-03T02:06:25.249Z,101412.69
2023-01-03T02:09:12.587Z,101411.44
2023-01-03T02:12:16.805Z,101415.28
2023-01-03T02:15:05.931Z,101409.19
2023-01-03T02:18:11.752Z,101402.78
2023-01-03T02:20:59.522Z,101414.56
2023-01-03T02:24:07.409Z,101425.06
2023-01-03T02:26:52.032Z,101427.44
2023-01-03T02:29:27.946Z,101431.84
2023-01-03T02:35:26.394Z,101426.66
2023-01-03T02:38:13.275Z,101432.69
2023-01-03T02:40:50.286Z,101429.34
2023-01-03T02:43:33.123Z,101438.28
2023-01-03T02:46:05.996Z,101438.41
2023-01-03T02:48:56.209Z,101436.63
2023-01-03T02:51:45.339Z,101443.75
2023-01-03T02:54:28.909Z,101460.72
2023-01-03T02:57:06.473Z,101467.09
2023-01-03T02:59:46.049Z,101461.03
2023-01-03T03:02:15.439Z,101459.38
2023-01-03T03:04:45.261Z,101458.47
2023-01-03T03:07:20.711Z,101464.88
2023-01-03T03:10:06.179Z,101469.84
2023-01-03T03:12:53.936Z,101475.91
2023-01-03T03:15:24.174Z,101483.84
2023-01-03T03:17:58.180Z,101483.84
2023-01-03T03:20:43.607Z,101481.44
2023-01-03T03:23:34.561Z,101474.59
2023-01-03T03:26:10.438Z,101475.16
2023-01-03T03:28:39.858Z,101478.28
2023-01-03T03:31:11.812Z,101479.78
2023-01-03T03:34:04.651Z,101488.69
2023-01-03T03:36:39.332Z,101491.34
2023-01-03T03:39:29.025Z,101491.75
2023-01-03T03:42:21.920Z,101501.66
2023-01-03T03:45:02.635Z,101488.91
2023-01-03T03:47:43.587Z,101492.84
2023-01-03T03:50:27.773Z,101486.91
2023-01-03T03:52:59.627Z,101491.03
2023-01-03T03:55:35.597Z,101487.00
2023-01-03T03:58:07.968Z,101490.66
2023-01-03T04:00:38.678Z,101500.63
2023-01-03T04:03:09.685Z,101501.56
2023-01-03T04:05:44.267Z,101502.28
2023-01-03T04:08:11.424Z,101513.69
2023-01-03T04:10:38.626Z,101523.72
2023-01-03T04:13:06.027Z,101523.44
2023-01-03T04:15:32.962Z,101523.31
2023-01-03T04:18:02.697Z,101538.81
2023-01-03T04:20:30.397Z,101540.16
2023-01-03T04:22:57.379Z,101545.72
2023-01-03T04:25:24.940Z,101555.78
2023-01-03T04:27:51.884Z,101546.06
2023-01-03T04:30:18.985Z,101554.09
2023-01-03T04:32:47.621Z,101555.91
2023-01-03T04:35:14.653Z,101559.28
2023-01-03T04:37:50.663Z,101558.34
2023-01-03T04:40:18.181Z,101559.03
2023-01-03T04:43:03.535Z,101553.78
2023-01-03T04:45:30.561Z,101552.84
2023-01-03T04:47:57.495Z,101559.06
2023-01-03T04:50:24.452Z,101557.25
2023-01-03T04:52:51.369Z,101560.13
2023-01-03T04:55:18.426Z,101563.34
2023-01-03T04:57:45.336Z,101562.75
2023-01-03T05:00:12.738Z,101555.00
2023-01-03T05:02:39.833Z,101558.72
2023-01-03T05:05:07.547Z,101549.44
2023-01-03T05:07:34.532Z,101552.81
2023-01-03T05:10:01.436Z,101556.22
2023-01-03T05:12:28.409Z,101559.97
2023-01-03T05:14:55.899Z,101551.78
2023-01-03T05:17:22.948Z,101561.94
2023-01-03T05:20:08.392Z,101563.06
2023-01-03T05:22:54.138Z,101562.31
2023-01-03T05:25:39.848Z,101560.62
2023-01-03T05:28:10.849Z,101562.47
2023-01-03T05:30:40.648Z,101567.56
2023-01-03T05:33:07.547Z,101567.34
2023-01-03T05:35:34.493Z,101573.59
2023-01-03T05:38:01.468Z,101580.03
2023-01-03T05:40:28.400Z,101580.78
2023-01-03T05:42:55.329Z,101578.50
2023-01-03T05:45:26.125Z,101578.22
2023-01-03T05:47:53.251Z,101573.31
2023-01-03T05:50:20.159Z,101577.06
2023-01-03T05:52:49.144Z,101580.69
2023-01-03T05:55:16.029Z,101583.53
2023-01-03T05:57:43.322Z,101594.56
2023-01-03T06:00:10.899Z,101598.09
2023-01-03T06:02:37.899Z,101594.25
2023-01-03T06:05:06.242Z,101593.19
2023-01-03T06:07:34.368Z,101589.63
2023-01-03T06:10:01.288Z,101598.22
2023-01-03T06:12:29.569Z,101597.16
2023-01-03T06:14:56.919Z,101605.09
2023-01-03T06:17:42.440Z,101609.84
2023-01-03T06:20:10.036Z,101616.97
2023-01-03T06:22:37.050Z,101624.56
2023-01-03T06:25:04.231Z,101618.66
2023-01-03T06:27:31.529Z,101613.72
2023-01-03T06:29:58.490Z,101619.78
2023-01-03T06:32:25.824Z,101608.44
2023-01-03T06:34:53.777Z,101605.31
2023-01-03T06:37:20.711Z,101609.34
2023-01-03T06:39:47.599Z,101608.28
2023-01-03T06:42:33.081Z,101604.38
2023-01-03T06:45:18.650Z,101607.50
2023-01-03T06:48:04.314Z,101604.00
2023-01-03T06:50:50.181Z,101610.84
2023-01-03T06:53:20.970Z,101614.66
2023-01-03T06:55:54.424Z,101612.91
2023-01-03T06:58:23.469Z,101621.03
2023-01-03T07:00:50.494Z,101624.50
2023-01-03T07:03:17.426Z,101619.38
2023-01-03T07:05:44.695Z,101616.03
2023-01-03T07:08:11.623Z,101624.91
2023-01-03T07:10:38.533Z,101622.41
2023-01-03T07:13:24.190Z,101634.09
2023-01-03T07:15:51.225Z,101632.31
2023-01-03T07:18:18.227Z,101642.63
2023-01-03T07:20:45.851Z,101644.00
2023-01-03T07:23:14.119Z,101651.16
2023-01-03T07:25:42.017Z,101653.75
2023-01-03T07:28:14.271Z,101652.53
2023-01-03T07:30:43.771Z,101660.72
2023-01-03T07:33:12.320Z,101658.28
2023-01-03T07:35:39.351Z,101659.78
2023-01-03T07:38:07.332Z,101659.22
2023-01-03T07:40:34.472Z,101668.59
2023-01-03T07:43:19.788Z,101663.03
2023-01-03T07:45:47.456Z,101669.66
2023-01-03T07:48:15.018Z,101682.31
2023-01-03T07:50:42.610Z,101685.94
2023-01-03T07:53:16.737Z,101684.00
2023-01-03T07:55:50.029Z,101684.22
2023-01-03T07:58:16.925Z,101675.88
2023-01-03T08:00:43.840Z,101679.75
2023-01-03T08:03:11.882Z,101677.25
2023-01-03T08:05:39.216Z,101687.06
2023-01-03T08:08:06.811Z,101680.03
2023-01-03T08:10:52.199Z,101686.09
2023-01-03T08:13:19.589Z,101681.53
2023-01-03T08:15:55.602Z,101680.00
2023-01-03T08:18:28.010Z,101694.06
2023-01-03T08:20:57.388Z,101684.84
2023-01-03T08:23:25.590Z,101685.75
2023-01-03T08:25:59.548Z,101681.81
2023-01-03T08:28:26.477Z,101680.06
2023-01-03T08:30:53.567Z,101689.59
2023-01-03T08:33:22.214Z,101685.25
2023-01-03T08:35:53.729Z,101683.56
2023-01-03T08:38:31.097Z,101685.78
2023-01-03T08:41:00.788Z,101690.66
2023-01-03T08:43:30.649Z,101698.56
2023-01-03T08:45:57.465Z,101696.00
2023-01-03T08:48:24.884Z,101703.44
2023-01-03T08:50:52.010Z,101702.72
2023-01-03T08:53:19.075Z,101707.19
2023-01-03T08:55:45.956Z,101709.97
2023-01-03T08:58:13.197Z,101711.87
2023-01-03T09:00:40.248Z,101707.59
2023-01-03T09:03:07.409Z,101713.78
2023-01-03T09:05:34.597Z,101713.66
2023-01-03T09:08:02.734Z,101717.75
2023-01-03T09:10:29.773Z,101718.19
2023-01-03T09:12:56.749Z,101718.84
2023-01-03T09:15:23.977Z,101714.53
2023-01-03T09:17:51.014Z,101726.38
2023-01-03T09:20:19.192Z,101710.38
2023-01-03T09:22:48.158Z,101708.53
2023-01-03T09:25:15.844Z,101715.91
2023-01-03T09:27:49.910Z,101712.84
2023-01-03T09:30:17.555Z,101720.09
2023-01-03T09:32:44.485Z,101707.91
2023-01-03T09:35:11.735Z,101698.37
2023-01-03T09:37:43.950Z,101698.59
2023-01-03T09:40:14.196Z,101700.44
2023-01-03T09:43:00.279Z,101698.50
2023-01-03T09:45:30.548Z,101694.34
2023-01-03T09:47:58.778Z,101686.41
2023-01-03T09:50:44.282Z,101696.00
2023-01-03T09:53:55.455Z,101695.84
2023-01-03T09:56:41.067Z,101705.84
2023-01-03T09:59:35.986Z,101697.34
2023-01-03T10:02:33.461Z,101694.78
2023-01-03T10:05:28.123Z,101696.00
2023-01-03T10:08:08.669Z,101694.78
2023-01-03T10:11:06.797Z,101702.81
2023-01-03T10:13:36.686Z,101698.66
2023-01-03T10:16:22.436Z,101691.37
2023-01-03T10:19:04.394Z,101681.25
2023-01-03T10:21:53.786Z,101678.41
2023-01-03T10:24:29.168Z,101683.72
2023-01-03T10:27:09.683Z,101681.34
2023-01-03T10:29:36.680Z,101689.12
2023-01-03T10:32:44.286Z,101688.34
2023-01-03T10:35:20.186Z,101677.50
2023-01-03T10:37:48.032Z,101670.78
2023-01-03T10:40:15.263Z,101679.66
2023-01-03T10:42:43.279Z,101677.94
2023-01-03T10:45:15.284Z,101683.97
2023-01-03T10:47:43.047Z,101677.97
2023-01-03T10:50:21.768Z,101672.25
2023-01-03T10:52:56.813Z,101668.63
2023-01-03T10:55:26.671Z,101667.31
2023-01-03T10:57:53.413Z,101669.72
2023-01-03T11:00:37.937Z,101673.50
2023-01-03T11:03:25.565Z,101662.59
2023-01-03T11:06:01.526Z,101671.56
2023-01-03T11:08:37.544Z,101677.66
2023-01-03T11:11:04.740Z,101664.94
2023-01-03T11:13:41.179Z,101667.28
2023-01-03T11:16:19.422Z,101671.28
2023-01-03T11:19:01.479Z,101662.25
2023-01-03T11:21:37.397Z,101662.41
2023-01-03T11:24:31.793Z,101668.06
2023-01-03T11:27:01.522Z,101661.19
2023-01-03T11:29:46.875Z,101658.41
2023-01-03T11:32:39.800Z,101665.56
2023-01-03T11:35:22.866Z,101654.91
2023-01-03T11:38:11.464Z,101651.59
2023-01-03T11:41:00.144Z,101652.53
2023-01-03T11:43:45.320Z,101652.34
2023-01-03T11:46:47.321Z,101649.91
2023-01-03T11:49:45.102Z,101656.06
2023-01-03T11:52:18.447Z,101661.44
2023-01-03T11:55:23.001Z,101650.16
2023-01-03T11:58:02.638Z,101651.88
2023-01-03T12:00:32.186Z,101649.22
2023-01-03T12:03:04.836Z,101645.25
2023-01-03T12:05:43.024Z,101639.25
2023-01-03T12:08:16.647Z,101642.81
2023-01-03T12:10:46.785Z,101649.25
2023-01-03T12:13:37.537Z,101643.22
2023-01-03T12:16:23.751Z,101641.16
2023-01-03T12:19:02.661Z,101636.84
2023-01-03T12:21:35.999Z,101640.03
2023-01-03T12:24:17.653Z,101626.50
2023-01-03T12:26:51.467Z,101636.06
2023-01-03T12:29:29.398Z,101630.84
2023-01-03T12:32:12.705Z,101629.63
2023-01-03T12:35:04.623Z,101629.97
2023-01-03T12:37:37.225Z,101618.56
2023-01-03T12:40:24.103Z,101623.22
2023-01-03T12:43:26.292Z,101621.53
2023-01-03T12:46:12.651Z,101612.66
2023-01-03T12:48:55.165Z,101625.19
2023-01-03T12:51:24.981Z,101620.88
2023-01-03T12:54:10.332Z,101618.25
2023-01-03T12:57:03.133Z,101614.69
2023-01-03T13:00:17.771Z,101614.31
2023-01-03T13:02:53.872Z,101614.62
2023-01-03T13:05:29.082Z,101613.84
2023-01-03T13:08:29.182Z,101612.94
2023-01-03T13:11:01.470Z,101612.22
2023-01-03T13:13:29.365Z,101622.69
2023-01-03T13:15:56.591Z,101611.38
2023-01-03T13:18:23.546Z,101613.97
2023-01-03T13:20:52.417Z,101614.69
2023-01-03T13:23:47.166Z,101621.84
2023-01-03T13:26:28.433Z,101606.84
2023-01-03T13:29:33.244Z,101614.78
2023-01-03T13:32:14.882Z,101613.00
2023-01-03T13:34:43.888Z,101609.50
2023-01-03T13:37:15.351Z,101612.03
2023-01-03T13:39:51.459Z,101613.00
2023-01-03T13:42:37.715Z,101619.97
2023-01-03T13:45:19.414Z,101620.78
2023-01-03T13:47:51.276Z,101618.31
2023-01-03T13:50:32.915Z,101617.47
2023-01-03T13:53:12.908Z,101626.19
2023-01-03T13:55:54.358Z,101619.31
2023-01-03T13:58:24.501Z,101624.56
2023-01-03T14:01:05.852Z,101625.44
2023-01-03T14:03:57.225Z,101622.78
2023-01-03T14:06:50.841Z,101626.34
2023-01-03T14:09:54.668Z,101625.50
2023-01-03T14:12:52.640Z,101632.50
2023-01-03T14:15:26.380Z,101625.41
2023-01-03T14:18:08.323Z,101629.84
2023-01-03T14:20:49.350Z,101638.69
2023-01-03T14:23:57.676Z,101641.19
2023-01-03T14:26:13.019Z,101638.69
2023-01-03T14:28:40.645Z,101640.37
2023-01-03T14:31:17.918Z,101640.41
2023-01-03T14:33:53.632Z,101644.66
2023-01-03T14:36:20.597Z,101649.88
2023-01-03T14:38:58.038Z,101649.94
2023-01-03T14:41:39.747Z,101654.34
2023-01-03T14:44:12.632Z,101651.75
2023-01-03T14:46:42.911Z,101653.34
2023-01-03T14:49:25.997Z,101646.38
2023-01-03T14:52:07.607Z,101649.97
2023-01-03T14:54:36.245Z,101645.62
2023-01-03T14:57:05.164Z,101651.75
2023-01-03T14:59:34.026Z,101649.16
2023-01-03T15:02:01.502Z,101648.25
2023-01-03T15:04:28.527Z,101655.19
2023-01-03T15:07:13.068Z,101650.91
2023-01-03T15:09:40.745Z,101665.72
2023-01-03T15:12:08.377Z,101667.53
2023-01-03T15:14:39.677Z,101669.16
2023-01-03T15:17:16.012Z,101659.28
2023-01-03T15:19:53.820Z,101664.13
2023-01-03T15:22:25.297Z,101656.38
2023-01-03T15:25:04.721Z,101661.53
2023-01-03T15:27:37.536Z,101675.69
2023-01-03T15:30:17.132Z,101672.31
2023-01-03T15:32:47.532Z,101684.13
2023-01-03T15:35:23.403Z,101681.47
2023-01-03T15:37:54.982Z,101682.47
2023-01-03T15:40:22.729Z,101692.78
2023-01-03T15:43:08.862Z,101692.06
2023-01-03T15:45:41.115Z,101692.88
2023-01-03T15:48:14.656Z,101691.16
2023-01-03T15:50:48.111Z,101690.94
2023-01-03T15:53:39.219Z,101699.91
2023-01-03T15:56:20.139Z,101686.03
2023-01-03T15:58:49.096Z,101694.44
2023-01-03T16:01:17.441Z,101697.44
2023-01-03T16:03:44.630Z,101700.06
2023-01-03T16:06:11.679Z,101711.50
2023-01-03T16:08:41.226Z,101707.19
2023-01-03T16:11:31.404Z,101699.28
2023-01-03T16:14:03.707Z,101708.16
2023-01-03T16:16:35.397Z,101704.66
2023-01-03T16:19:04.267Z,101703.94
2023-01-03T16:21:31.790Z,101699.53
2023-01-03T16:23:59.496Z,101702.81
2023-01-03T16:26:26.463Z,101705.44
2023-01-03T16:28:55.467Z,101713.94
2023-01-03T16:31:41.671Z,101715.41
2023-01-03T16:34:19.946Z,101711.16
2023-01-03T16:36:48.258Z,101723.31
2023-01-03T16:39:18.521Z,101727.63
2023-01-03T16:42:06.535Z,101727.97
2023-01-03T16:44:35.877Z,101717.34
2023-01-03T16:47:05.290Z,101719.56
2023-01-03T16:49:35.762Z,101726.78
2023-01-03T16:52:06.178Z,101731.31
2023-01-03T16:54:34.508Z,101732.13
2023-01-03T16:57:01.424Z,101744.16
2023-01-03T16:59:28.436Z,101737.25
2023-01-03T17:01:55.539Z,101738.69
2023-01-03T17:04:22.527Z,101743.75
2023-01-03T17:06:49.460Z,101746.41
2023-01-03T17:09:21.390Z,101735.97
2023-01-03T17:11:48.889Z,101741.38
2023-01-03T17:14:23.484Z,101744.28
2023-01-03T17:16:50.980Z,101738.63
2023-01-03T17:22:20.630Z,101745.03
2023-01-03T17:24:48.483Z,101743.47
2023-01-03T17:27:31.816Z,101750.72
2023-01-03T17:30:04.728Z,101752.63
2023-01-03T17:32:32.104Z,101763.81
2023-01-03T17:34:59.048Z,101753.16
2023-01-03T17:37:26.775Z,101761.78
2023-01-03T17:39:57.249Z,101764.88
2023-01-03T17:42:25.894Z,101767.41
2023-01-03T17:45:12.160Z,101758.69
2023-01-03T17:48:01.876Z,101760.56
2023-01-03T17:50:32.391Z,101762.09
2023-01-03T17:53:02.291Z,101765.87
2023-01-03T17:55:29.922Z,101774.88
2023-01-03T17:57:57.074Z,101775.87
2023-01-03T18:00:25.453Z,101775.87
2023-01-03T18:02:52.904Z,101778.63
2023-01-03T18:05:27.753Z,101774.31
2023-01-03T18:07:56.561Z,101773.81
2023-01-03T18:10:30.167Z,101772.37
2023-01-03T18:12:57.164Z,101782.97
2023-01-03T18:15:23.893Z,101790.97
2023-01-03T18:17:51.176Z,101789.31
2023-01-03T18:20:18.527Z,101783.00
2023-01-03T18:22:46.531Z,101792.72
2023-01-03T18:25:23.913Z,101784.81
2023-01-03T18:27:53.011Z,101777.69
2023-01-03T18:30:19.940Z,101777.00
2023-01-03T18:32:46.734Z,101789.31
2023-01-03T18:35:14.584Z,101787.72
2023-01-03T18:37:41.956Z,101785.19
2023-01-03T18:40:09.105Z,101792.78
2023-01-03T18:42:54.929Z,101784.91
2023-01-03T18:45:21.823Z,101792.69
2023-01-03T18:47:49.313Z,101794.53
2023-01-03T18:50:20.043Z,101793.66
2023-01-03T18:52:47.814Z,101801.91
2023-01-03T18:55:19.561Z,101797.47
2023-01-03T18:57:46.649Z,101808.38
2023-01-03T19:00:17.732Z,101805.94
2023-01-03T19:02:45.334Z,101802.56
2023-01-03T19:05:12.254Z,101803.66
2023-01-03T19:07:39.260Z,101819.56
2023-01-03T19:10:07.313Z,101822.28
2023-01-03T19:12:38.773Z,101834.50
2023-01-03T19:15:16.282Z,101824.81
2023-01-03T19:17:43.018Z,101830.19
2023-01-03T19:20:10.051Z,101832.53
2023-01-03T19:22:38.252Z,101831.75
2023-01-03T19:25:07.688Z,101833.50
2023-01-03T19:27:38.589Z,101832.81
2023-01-03T19:30:06.684Z,101824.94
2023-01-03T19:32:34.179Z,101837.50
2023-01-03T19:35:01.154Z,101833.94
2023-01-03T19:37:27.902Z,101829.50
2023-01-03T19:39:54.642Z,101827.44
2023-01-03T19:42:40.106Z,101829.59
2023-01-03T19:45:26.343Z,101835.75
2023-01-03T19:47:53.542Z,101833.53
2023-01-03T19:50:24.114Z,101838.53
2023-01-03T19:52:51.534Z,101830.31
2023-01-03T19:55:18.332Z,101827.03
2023-01-03T19:57:47.192Z,101830.75
2023-01-03T20:00:32.339Z,101830.97
2023-01-03T20:03:02.051Z,101821.56
2023-01-03T20:05:36.475Z,101824.44
2023-01-03T20:08:11.278Z,101830.63
2023-01-03T20:10:40.275Z,101837.72
2023-01-03T20:13:07.045Z,101833.97
2023-01-03T20:15:40.696Z,101832.00
2023-01-03T20:18:22.645Z,101827.00
2023-01-03T20:20:50.094Z,101826.25
2023-01-03T20:23:17.616Z,101830.59
2023-01-03T20:25:45.082Z,101838.31
2023-01-03T20:28:17.003Z,101829.78
2023-01-03T20:30:43.763Z,101841.88
2023-01-03T20:33:11.451Z,101826.28
2023-01-03T20:38:27.195Z,101829.72
2023-01-03T20:40:56.501Z,101831.44
2023-01-03T20:43:23.856Z,101830.50
2023-01-03T20:45:55.356Z,101827.97
2023-01-03T20:48:25.968Z,101824.59
2023-01-03T20:50:53.450Z,101822.84
2023-01-03T20:53:21.626Z,101827.16
2023-01-03T20:55:48.909Z,101822.88
2023-01-03T20:58:17.224Z,101827.19
2023-01-03T21:00:44.492Z,101826.25
2023-01-03T21:03:11.675Z,101827.22
2023-01-03T21:05:38.937Z,101821.13
2023-01-03T21:08:25.188Z,101828.88
2023-01-03T21:10:54.655Z,101828.06
2023-01-03T21:13:21.842Z,101837.69
2023-01-03T21:15:49.703Z,101838.53
2023-01-03T21:18:16.846Z,101842.22
2023-01-03T21:20:44.163Z,101846.50
2023-01-03T21:23:29.263Z,101842.19
2023-01-03T21:25:56.125Z,101840.34
2023-01-03T21:28:23.310Z,101844.41
2023-01-03T21:30:50.004Z,101843.63
2023-01-03T21:33:17.605Z,101841.91
2023-01-03T21:35:44.735Z,101844.63
2023-01-03T21:38:11.716Z,101843.81
2023-01-03T21:40:39.675Z,101850.84
2023-01-03T21:43:06.982Z,101852.69
2023-01-03T21:45:35.609Z,101851.59
2023-01-03T21:48:03.715Z,101853.28
2023-01-03T21:50:31.047Z,101850.84
2023-01-03T21:52:58.130Z,101852.44
2023-01-03T21:55:24.975Z,101859.66
2023-01-03T21:57:52.045Z,101857.81
2023-01-03T22:00:19.126Z,101864.09
2023-01-03T22:03:06.622Z,101864.09
2023-01-03T22:05:33.524Z,101864.03
2023-01-03T22:08:01.814Z,101856.91
2023-01-03T22:10:29.104Z,101861.38
2023-01-03T22:12:57.533Z,101857.91
2023-01-03T22:15:25.004Z,101868.47
2023-01-03T22:17:52.674Z,101862.53
2023-01-03T22:20:20.539Z,101867.75
2023-01-03T22:22:47.355Z,101867.59
2023-01-03T22:25:16.022Z,101865.50
2023-01-03T22:27:43.193Z,101869.94
2023-01-03T22:30:12.857Z,101875.91
2023-01-03T22:32:39.814Z,101872.56
2023-01-03T22:35:06.731Z,101875.84
2023-01-03T22:37:33.496Z,101880.16
2023-01-03T22:40:00.198Z,101876.81
2023-01-03T22:42:27.205Z,101881.25
2023-01-03T22:44:54.006Z,101878.53
2023-01-03T22:47:20.812Z,101872.53
2023-01-03T22:49:47.992Z,101870.78
2023-01-03T22:52:14.695Z,101874.19
2023-01-03T22:54:41.820Z,101872.62
2023-01-03T22:57:08.635Z,101885.84
2023-01-03T22:59:35.377Z,101883.88
2023-01-03T23:02:02.278Z,101883.06
2023-01-03T23:04:29.259Z,101879.50
2023-01-03T23:06:56.126Z,101884.81
2023-01-03T23:09:24.275Z,101874.31
2023-01-03T23:12:09.953Z,101881.37
2023-01-03T23:14:36.768Z,101884.72
2023-01-03T23:17:23.446Z,101884.78
2023-01-03T23:19:50.462Z,101884.72
2023-01-03T23:22:17.193Z,101882.03
2023-01-03T23:24:43.971Z,101879.59
2023-01-03T23:27:10.737Z,101892.38
2023-01-03T23:29:37.482Z,101881.03
2023-01-03T23:32:04.290Z,101884.75
2023-01-03T23:34:31.003Z,101882.13
2023-01-03T23:36:57.719Z,101881.06
2023-01-03T23:39:24.504Z,101881.16
2023-01-03T23:41:51.273Z,101872.31
2023-01-03T23:44:18.025Z,101868.59
2023-01-03T23:46:44.780Z,101866.16
2023-01-03T23:49:13.547Z,101864.50
2023-01-03T23:51:40.501Z,101862.84
2023-01-03T23:54:07.392Z,101858.31
2023-01-03T23:56:34.221Z,101860.81
2023-01-03T23:59:01.052Z,101856.44
